Pagrindinis puslapis
METAR-TAF:

METAR-TAF

Oro uostai :

Kristiansandas, Norvegija

platuma: 58-12N, ilguma: 008-05E, Aukštis: 1 m

Dabartinis oras

Ataskaita buvo paskelbta 29 minutes, ne 01:50 UTC
Vėjas 3 kt nuo kintamojo kryptimis
Temperatūra 14°C
Drėgmė 100%
Slėgis 1024 hPa
Matomumas 10 km arba daugiau

METAR: ENCN 240150Z AUTO VRB03KT 9999 NCD 14/14 Q1024

Laikas: 04:19 (02:19 UTC)

Prognozė

Ataskaita buvo paskelbta 9 valandos ir 19 minutes, ne 17:00 UTC
Prognozė galioja nuo 23 metu 18 UTC su 23 metu 21 UTC
Vėjas 8 kt iš Vakarų/Pietvakarių
Matomumas 10 km arba daugiau
Su prošvaistėmis ne aukštis 1800 ft

TAF: ENCN 231700Z 2318/2321 24008KT 9999 BKN018

Orai ataskaitas ir orų prognozės (METAR, TAF).

turimą stotys yra geltonos ir raudonos taškus žemėlapyje.

Perkelti pele per norėdami pamatyti stoties vardą.

Tada spustelėkite, norėdami matyti oro stebėjimo ir prognozės.

Norėdami pakeisti žemėlapį: spustelėkite ant žalios mygtukų su juodo kryžiaus žemyn,; žalią mygtuką su brūkšneliu, jei norite nutolinti; arba žalių rodyklių gretimoms žemėlapius.


METAR-TAF: